Agua Dulce, California
Current Conditions -  °F | °C
As of 9:56 PM on Saturday 20 Dec 2014 (Local Time) from KWJF Reporting Station
Clear Clear  
Wind Chill: 51°   Ceiling: Unl
Heat Index: 51°   Visibility: 10mi
Dew Point: 45°   Wind: 14mph
Humidity: 80%   Direction: 300°WNW
Pressure: 30.2"   Gusts: NA
Location:  34.513°N, 118.402°W
Report Text: KWJF 210556Z AUTO 30012KT 10SM CLR 11/07 A3020 RMK AO2 SLP232 T01060072 10133 20106 53016
Loading
Personal Weather Stations






























Interactive Weather Map New forecast layout! Learn more

10-Day Weather Forecast

Advertisements
Track Severe Weather on mobile